createdAt,value
2017-11-19T00:00:15.424Z,93.99
2017-11-19T00:01:15.671Z,93.42
2017-11-19T00:02:15.405Z,93.8
2017-11-19T00:03:15.651Z,93.7
2017-11-19T00:04:15.383Z,93.61
2017-11-19T00:05:15.634Z,93.51
2017-11-19T00:06:15.361Z,93.7
2017-11-19T00:07:15.611Z,93.8
2017-11-19T00:08:15.601Z,94.56
2017-11-19T00:09:15.594Z,94.56
2017-11-19T00:10:15.587Z,94.18
2017-11-19T00:11:15.570Z,93.42
2017-11-19T00:12:15.409Z,93.8
2017-11-19T00:13:15.292Z,93.7
2017-11-19T00:14:15.544Z,94.46
2017-11-19T00:15:15.274Z,94.46
2017-11-19T00:16:15.262Z,94.65
2017-11-19T00:17:15.511Z,93.32
2017-11-19T00:18:15.265Z,94.65
2017-11-19T00:19:15.505Z,94.46
2017-11-19T00:20:15.479Z,95.03
2017-11-19T00:21:15.479Z,95.03
2017-11-19T00:22:15.464Z,94.65
2017-11-19T00:23:15.450Z,94.27
2017-11-19T00:24:15.445Z,95.03
2017-11-19T00:25:15.534Z,95.03
2017-11-19T00:26:15.420Z,94.84
2017-11-19T00:27:15.422Z,94.65
2017-11-19T00:28:15.415Z,95.03
2017-11-19T00:29:15.136Z,95.03
2017-11-19T00:30:15.385Z,95.03
2017-11-19T00:31:15.367Z,94.84
2017-11-19T00:32:15.368Z,95.03
2017-11-19T00:33:15.360Z,94.65
2017-11-19T00:34:15.344Z,95.03
2017-11-19T00:35:15.429Z,94.84
2017-11-19T00:36:15.324Z,94.93
2017-11-19T00:37:15.326Z,94.65
2017-11-19T00:38:15.299Z,95.03
2017-11-19T00:39:15.292Z,95.03
2017-11-19T00:40:15.284Z,94.93
2017-11-19T00:41:15.012Z,94.74
2017-11-19T00:42:15.264Z,94.74
2017-11-19T00:43:15.250Z,95.98
2017-11-19T00:44:14.982Z,94.84
2017-11-19T00:45:15.234Z,94.93
2017-11-19T00:46:15.224Z,95.03
2017-11-19T00:47:15.314Z,95.69
2017-11-19T00:48:15.215Z,94.84
2017-11-19T00:49:15.191Z,95.12
2017-11-19T00:50:15.181Z,95.03
2017-11-19T00:51:15.182Z,95.03
2017-11-19T00:52:15.162Z,94.46
2017-11-19T00:53:14.896Z,94.56
2017-11-19T00:54:15.141Z,95.03
2017-11-19T00:55:15.139Z,94.08
2017-11-19T00:56:15.120Z,94.93
2017-11-19T00:57:14.850Z,94.84
2017-11-19T00:58:15.301Z,95.88
2017-11-19T00:59:15.193Z,95.5
2017-11-19T01:00:15.093Z,95.6
2017-11-19T01:01:14.812Z,95.6
2017-11-19T01:02:14.805Z,95.41
2017-11-19T01:03:14.793Z,95.31
2017-11-19T01:04:15.040Z,95.69
2017-11-19T01:05:15.034Z,96.26
2017-11-19T01:06:15.020Z,95.5
2017-11-19T01:07:15.112Z,95.98
2017-11-19T01:08:15.001Z,95.98
2017-11-19T01:09:15.102Z,95.79
2017-11-19T01:10:14.984Z,95.41
2017-11-19T01:11:14.713Z,96.07
2017-11-19T01:12:14.965Z,96.17
2017-11-19T01:13:14.960Z,96.07
2017-11-19T01:14:14.944Z,95.79
2017-11-19T01:15:14.938Z,96.07
2017-11-19T01:16:14.663Z,96.64
2017-11-19T01:17:14.909Z,96.45
2017-11-19T01:18:14.907Z,96.26
2017-11-19T01:19:14.632Z,96.17
2017-11-19T01:20:14.879Z,96.64
2017-11-19T01:21:14.871Z,96.83
2017-11-19T01:22:14.610Z,96.64
2017-11-19T01:23:14.597Z,96.92
2017-11-19T01:24:14.839Z,96.17
2017-11-19T01:25:14.936Z,95.98
2017-11-19T01:26:14.821Z,95.98
2017-11-19T01:27:14.809Z,95.88
2017-11-19T01:28:14.808Z,96.17
2017-11-19T01:29:14.793Z,96.64
2017-11-19T01:30:14.621Z,96.92
2017-11-19T01:31:14.774Z,96.36
2017-11-19T01:32:14.759Z,96.07
2017-11-19T01:33:14.592Z,96.64
2017-11-19T01:34:14.742Z,96.92
2017-11-19T01:35:14.737Z,96.55
2017-11-19T01:36:14.720Z,96.64
2017-11-19T01:37:14.453Z,96.73
2017-11-19T01:38:14.703Z,96.83
2017-11-19T01:39:14.691Z,96.45
2017-11-19T01:40:14.428Z,96.64
2017-11-19T01:41:14.670Z,96.92
2017-11-19T01:42:14.662Z,96.36
2017-11-19T01:43:14.653Z,96.83
2017-11-19T01:44:14.641Z,96.92
2017-11-19T01:45:14.371Z,97.4
2017-11-19T01:46:14.363Z,97.49
2017-11-19T01:47:14.621Z,97.49
2017-11-19T01:48:14.602Z,97.02
2017-11-19T01:49:14.589Z,97.3
2017-11-19T01:50:14.594Z,96.92
2017-11-19T01:51:14.571Z,97.59
2017-11-19T01:52:14.301Z,97.49
2017-11-19T01:53:14.576Z,97.3
2017-11-19T01:54:14.283Z,98.06
2017-11-19T01:55:14.533Z,97.68
2017-11-19T01:56:14.263Z,97.87
2017-11-19T01:57:14.256Z,97.87
2017-11-19T01:58:14.499Z,97.87
2017-11-19T01:59:14.601Z,97.78
2017-11-19T02:00:14.223Z,97.21
2017-11-19T02:01:14.475Z,97.97
2017-11-19T02:02:14.462Z,97.21
2017-11-19T02:03:14.461Z,97.68
2017-11-19T02:04:14.444Z,97.87
2017-11-19T02:05:14.437Z,97.68
2017-11-19T02:06:14.163Z,97.78
2017-11-19T02:07:14.155Z,97.78
2017-11-19T02:08:14.402Z,97.78
2017-11-19T02:09:14.135Z,98.06
2017-11-19T02:10:14.388Z,97.97
2017-11-19T02:11:14.114Z,98.25
2017-11-19T02:12:14.367Z,97.97
2017-11-19T02:13:14.353Z,98.44
2017-11-19T02:14:14.084Z,97.68
2017-11-19T02:15:14.330Z,97.87
2017-11-19T02:16:14.066Z,97.59
2017-11-19T02:17:14.315Z,97.3
2017-11-19T02:18:14.047Z,97.59
2017-11-19T02:19:14.296Z,98.06
2017-11-19T02:20:14.030Z,97.78
2017-11-19T02:21:14.015Z,97.87
2017-11-19T02:22:14.360Z,97.68
2017-11-19T02:23:14.253Z,97.68
2017-11-19T02:24:14.242Z,97.78
2017-11-19T02:25:14.235Z,97.68
2017-11-19T02:26:14.220Z,97.21
2017-11-19T02:27:14.213Z,98.16
2017-11-19T02:28:13.947Z,97.87
2017-11-19T02:29:14.193Z,98.16
2017-11-19T02:30:14.187Z,97.97
2017-11-19T02:31:14.187Z,97.97
2017-11-19T02:32:14.162Z,97.97
2017-11-19T02:33:14.159Z,97.49
2017-11-19T02:34:14.146Z,97.4
2017-11-19T02:35:14.136Z,97.21
2017-11-19T02:36:14.123Z,97.49
2017-11-19T02:37:13.858Z,97.4
2017-11-19T02:38:14.110Z,97.4
2017-11-19T02:39:13.836Z,97.4
2017-11-19T02:40:14.084Z,97.68
2017-11-19T02:41:14.073Z,97.68
2017-11-19T02:42:14.074Z,97.68
2017-11-19T02:43:14.057Z,97.78
2017-11-19T02:44:14.054Z,97.78
2017-11-19T02:45:14.042Z,97.21
2017-11-19T02:46:14.024Z,97.4
2017-11-19T02:47:14.015Z,97.02
2017-11-19T02:48:14.014Z,97.02
2017-11-19T02:49:13.993Z,97.68
2017-11-19T02:50:13.725Z,97.4
2017-11-19T02:51:13.975Z,97.11
2017-11-19T02:52:13.974Z,97.49
2017-11-19T02:53:13.697Z,97.4
2017-11-19T02:54:13.946Z,97.78
2017-11-19T02:55:13.934Z,97.87
2017-11-19T02:56:13.927Z,97.59
2017-11-19T02:57:13.916Z,97.59
2017-11-19T02:58:13.905Z,97.68
2017-11-19T02:59:13.895Z,97.87
2017-11-19T03:00:13.886Z,98.16
2017-11-19T03:01:13.881Z,97.49
2017-11-19T03:02:13.866Z,97.68
2017-11-19T03:03:13.853Z,97.78
2017-11-19T03:04:13.587Z,97.78
2017-11-19T03:05:13.835Z,97.97
2017-11-19T03:06:13.831Z,98.06
2017-11-19T03:07:13.913Z,97.49
2017-11-19T03:08:13.837Z,97.97
2017-11-19T03:09:13.536Z,97.49
2017-11-19T03:10:13.783Z,97.49
2017-11-19T03:11:13.779Z,97.87
2017-11-19T03:12:13.603Z,97.97
2017-11-19T03:13:13.495Z,97.78
2017-11-19T03:14:13.485Z,98.06
2017-11-19T03:15:13.769Z,97.97
2017-11-19T03:16:13.470Z,97.87
2017-11-19T03:17:13.716Z,97.78
2017-11-19T03:18:13.703Z,97.4
2017-11-19T03:19:13.437Z,97.21
2017-11-19T03:20:13.685Z,97.59
2017-11-19T03:21:13.672Z,97.3
2017-11-19T03:22:13.405Z,97.21
2017-11-19T03:23:13.658Z,97.49
2017-11-19T03:24:13.643Z,97.59
2017-11-19T03:25:13.630Z,97.4
2017-11-19T03:26:13.624Z,97.3
2017-11-19T03:27:13.619Z,97.59
2017-11-19T03:28:13.342Z,97.68
2017-11-19T03:29:13.595Z,97.59
2017-11-19T03:30:13.592Z,97.21
2017-11-19T03:31:13.581Z,96.83
2017-11-19T03:32:13.564Z,96.92
2017-11-19T03:33:13.553Z,97.59
2017-11-19T03:34:13.282Z,96.83
2017-11-19T03:35:13.273Z,96.92
2017-11-19T03:36:13.266Z,96.73
2017-11-19T03:37:13.514Z,96.92
2017-11-19T03:38:13.600Z,96.83
2017-11-19T03:39:13.503Z,97.21
2017-11-19T03:40:13.627Z,97.3
2017-11-19T03:41:13.474Z,97.3
2017-11-19T03:42:13.206Z,97.97
2017-11-19T03:43:13.499Z,97.3
2017-11-19T03:44:13.184Z,97.87
2017-11-19T03:45:13.465Z,97.59
2017-11-19T03:46:13.433Z,98.06
2017-11-19T03:47:13.413Z,98.35
2017-11-19T03:48:13.405Z,98.25
2017-11-19T03:49:13.394Z,98.06
2017-11-19T03:50:13.380Z,98.63
2017-11-19T03:51:13.378Z,98.44
2017-11-19T03:52:13.361Z,98.63
2017-11-19T03:53:13.356Z,98.72
2017-11-19T03:54:13.345Z,98.44
2017-11-19T03:55:13.334Z,98.63
2017-11-19T03:56:13.327Z,99.2
2017-11-19T03:57:13.325Z,99.2
2017-11-19T03:58:13.318Z,99.48
2017-11-19T03:59:13.295Z,99.2
2017-11-19T04:00:13.296Z,99.2
2017-11-19T04:01:13.056Z,99.29
2017-11-19T04:02:13.268Z,99.29
2017-11-19T04:03:13.254Z,98.25
2017-11-19T04:04:12.984Z,98.35
2017-11-19T04:05:13.232Z,98.72
2017-11-19T04:06:13.225Z,99.1
2017-11-19T04:07:13.214Z,98.82
2017-11-19T04:08:13.304Z,99.58
2017-11-19T04:09:13.194Z,99.58
2017-11-19T04:10:13.191Z,99.29
2017-11-19T04:11:13.174Z,99.77
2017-11-19T04:12:12.904Z,99.86
2017-11-19T04:13:13.153Z,99.96
2017-11-19T04:14:12.883Z,99.86
2017-11-19T04:15:12.875Z,99.29
2017-11-19T04:16:13.123Z,99.29
2017-11-19T04:17:13.122Z,99.58
2017-11-19T04:18:12.844Z,99.86
2017-11-19T04:19:13.092Z,99.77
2017-11-19T04:20:13.081Z,99.99
2017-11-19T04:21:12.815Z,99.99
2017-11-19T04:22:13.062Z,99.99
2017-11-19T04:23:12.795Z,99.99
2017-11-19T04:24:12.789Z,99.58
2017-11-19T04:25:13.033Z,99.2
2017-11-19T04:26:13.021Z,99.58
2017-11-19T04:27:13.012Z,99.86
2017-11-19T04:28:12.999Z,99.86
2017-11-19T04:29:13.026Z,99.77
2017-11-19T04:30:12.981Z,99.96
2017-11-19T04:31:12.997Z,99.96
2017-11-19T04:32:12.715Z,99.86
2017-11-19T04:33:12.693Z,99.99
2017-11-19T04:34:12.953Z,99.96
2017-11-19T04:35:12.932Z,99.99
2017-11-19T04:36:12.923Z,99.99
2017-11-19T04:37:12.915Z,99.99
2017-11-19T04:38:12.917Z,99.96
2017-11-19T04:39:12.892Z,99.48
2017-11-19T04:40:12.894Z,99.48
2017-11-19T04:41:12.611Z,99.29
2017-11-19T04:42:12.601Z,99.2
2017-11-19T04:43:12.852Z,99.48
2017-11-19T04:44:12.583Z,99.77
2017-11-19T04:45:12.573Z,99.67
2017-11-19T04:46:12.823Z,99.48
2017-11-19T04:47:12.810Z,99.67
2017-11-19T04:48:12.802Z,99.77
2017-11-19T04:49:12.792Z,99.86
2017-11-19T04:50:12.523Z,99.77
2017-11-19T04:51:12.777Z,99.99
2017-11-19T04:52:12.762Z,99.86
2017-11-19T04:53:12.594Z,99.86
2017-11-19T04:54:12.740Z,99.58
2017-11-19T04:55:12.731Z,99.39
2017-11-19T04:56:12.723Z,99.48
2017-11-19T04:57:12.452Z,99.39
2017-11-19T04:58:12.705Z,99.48
2017-11-19T04:59:12.704Z,99.39
2017-11-19T05:00:12.681Z,99.39
2017-11-19T05:01:12.674Z,99.39
2017-11-19T05:02:12.400Z,99.48
2017-11-19T05:03:12.753Z,99.29
2017-11-19T05:04:12.644Z,99.24
2017-11-19T05:05:12.637Z,98.91
2017-11-19T05:06:12.461Z,99.48
2017-11-19T05:07:12.612Z,99.67
2017-11-19T05:08:12.341Z,99.29
2017-11-19T05:09:12.331Z,99.1
2017-11-19T05:10:12.576Z,99.2
2017-11-19T05:11:12.571Z,99.58
2017-11-19T05:12:12.562Z,99.01
2017-11-19T05:13:12.548Z,99.52
2017-11-19T05:14:12.540Z,99.58
2017-11-19T05:15:12.530Z,99.39
2017-11-19T05:16:12.267Z,99.29
2017-11-19T05:17:12.517Z,99.39
2017-11-19T05:18:12.502Z,99.29
2017-11-19T05:19:12.494Z,99.52
2017-11-19T05:20:12.321Z,99.9
2017-11-19T05:21:12.471Z,99.81
2017-11-19T05:22:12.200Z,99.86
2017-11-19T05:23:12.452Z,99.99
2017-11-19T05:24:12.438Z,99.99
2017-11-19T05:25:12.429Z,99.67
2017-11-19T05:26:12.417Z,99.62
2017-11-19T05:27:12.414Z,99.43
2017-11-19T05:28:12.416Z,99.52
2017-11-19T05:29:12.391Z,99.81
2017-11-19T05:30:12.122Z,99.99
2017-11-19T05:31:12.373Z,99.81
2017-11-19T05:32:12.459Z,99.81
2017-11-19T05:33:12.352Z,99.81
2017-11-19T05:34:12.340Z,99.81
2017-11-19T05:35:12.325Z,99.9
2017-11-19T05:36:12.059Z,99.99
2017-11-19T05:37:12.313Z,99.99
2017-11-19T05:38:12.298Z,99.71
2017-11-19T05:39:12.291Z,99.99
2017-11-19T05:40:12.276Z,99.99
2017-11-19T05:41:12.009Z,99.99
2017-11-19T05:42:12.362Z,99.99
2017-11-19T05:43:12.247Z,99.62
2017-11-19T05:44:12.240Z,99.62
2017-11-19T05:45:12.225Z,99.52
2017-11-19T05:46:11.965Z,99.99
2017-11-19T05:47:11.948Z,99.99
2017-11-19T05:48:11.936Z,99.99
2017-11-19T05:49:12.188Z,99.99
2017-11-19T05:50:12.178Z,99.99
2017-11-19T05:51:11.908Z,99.99
2017-11-19T05:52:12.165Z,99.99
2017-11-19T05:53:12.149Z,99.99
2017-11-19T05:54:11.878Z,99.99
2017-11-19T05:55:12.140Z,99.99
2017-11-19T05:56:12.114Z,99.99
2017-11-19T05:57:12.105Z,99.99
2017-11-19T05:58:12.097Z,99.99
2017-11-19T05:59:12.090Z,99.99
2017-11-19T06:00:12.077Z,99.99
2017-11-19T06:01:12.065Z,99.99
2017-11-19T06:02:12.056Z,99.99
2017-11-19T06:03:11.788Z,99.99
2017-11-19T06:04:12.034Z,99.99
2017-11-19T06:05:12.027Z,99.99
2017-11-19T06:06:12.011Z,99.99
2017-11-19T06:07:12.009Z,99.99
2017-11-19T06:08:11.997Z,99.67
2017-11-19T06:09:11.985Z,99.99
2017-11-19T06:10:11.716Z,99.99
2017-11-19T06:11:11.961Z,99.99
2017-11-19T06:12:11.698Z,99.99
2017-11-19T06:13:11.684Z,99.99
2017-11-19T06:14:11.943Z,99.99
2017-11-19T06:15:11.918Z,99.99
2017-11-19T06:16:12.011Z,99.99
2017-11-19T06:17:11.904Z,99.99
2017-11-19T06:18:11.631Z,99.99
2017-11-19T06:19:11.880Z,99.99
2017-11-19T06:20:11.869Z,99.99
2017-11-19T06:21:11.602Z,99.99
2017-11-19T06:22:11.849Z,99.99
2017-11-19T06:23:11.845Z,99.99
2017-11-19T06:24:11.830Z,99.99
2017-11-19T06:25:11.562Z,99.99
2017-11-19T06:26:11.810Z,99.99
2017-11-19T06:27:11.803Z,99.99
2017-11-19T06:28:11.790Z,99.99
2017-11-19T06:29:11.879Z,99.99
2017-11-19T06:30:11.767Z,99.99
2017-11-19T06:31:11.757Z,99.99
2017-11-19T06:32:11.492Z,99.99
2017-11-19T06:33:11.736Z,99.99
2017-11-19T06:34:11.471Z,99.99
2017-11-19T06:35:11.728Z,99.99
2017-11-19T06:36:11.449Z,99.99
2017-11-19T06:37:11.695Z,99.99
2017-11-19T06:38:11.430Z,99.99
2017-11-19T06:39:11.676Z,99.99
2017-11-19T06:40:11.671Z,99.99
2017-11-19T06:41:11.396Z,99.99
2017-11-19T06:42:11.650Z,99.99
2017-11-19T06:43:11.635Z,99.99
2017-11-19T06:44:11.633Z,99.99
2017-11-19T06:45:11.613Z,99.99
2017-11-19T06:46:11.355Z,99.99
2017-11-19T06:47:11.365Z,99.99
2017-11-19T06:48:11.326Z,99.99
2017-11-19T06:49:11.574Z,99.99
2017-11-19T06:50:11.664Z,99.99
2017-11-19T06:51:11.553Z,99.99
2017-11-19T06:52:11.543Z,99.99
2017-11-19T06:53:11.274Z,99.99
2017-11-19T06:54:11.520Z,99.99
2017-11-19T06:55:11.513Z,99.99
2017-11-19T06:56:11.503Z,99.99
2017-11-19T06:57:11.496Z,99.99
2017-11-19T06:58:11.487Z,99.99
2017-11-19T06:59:11.470Z,99.99
2017-11-19T07:00:11.462Z,99.99
2017-11-19T07:01:11.458Z,99.99
2017-11-19T07:02:11.440Z,99.99
2017-11-19T07:03:11.433Z,99.99
2017-11-19T07:04:11.421Z,99.99
2017-11-19T07:05:11.149Z,99.99
2017-11-19T07:06:11.401Z,99.99
2017-11-19T07:07:11.129Z,99.99
2017-11-19T07:08:11.118Z,99.99
2017-11-19T07:09:11.110Z,99.99
2017-11-19T07:10:11.360Z,99.99
2017-11-19T07:11:11.368Z,99.99
2017-11-19T07:12:11.335Z,99.99
2017-11-19T07:13:11.066Z,99.99
2017-11-19T07:14:11.351Z,99.99
2017-11-19T07:15:11.304Z,99.99
2017-11-19T07:16:11.301Z,99.99
2017-11-19T07:17:11.282Z,99.99
2017-11-19T07:18:11.017Z,99.99
2017-11-19T07:19:11.266Z,99.99
2017-11-19T07:20:10.997Z,99.99
2017-11-19T07:21:11.244Z,99.99
2017-11-19T07:22:11.234Z,99.99
2017-11-19T07:23:11.222Z,99.99
2017-11-19T07:24:11.220Z,99.99
2017-11-19T07:25:11.203Z,99.99
2017-11-19T07:26:10.932Z,99.99
2017-11-19T07:27:11.202Z,99.99
2017-11-19T07:28:11.175Z,99.99
2017-11-19T07:29:11.164Z,99.99
2017-11-19T07:30:11.160Z,99.99
2017-11-19T07:31:10.885Z,99.99
2017-11-19T07:32:10.869Z,99.99
2017-11-19T07:33:11.118Z,99.99
2017-11-19T07:34:10.850Z,99.99
2017-11-19T07:35:11.097Z,99.99
2017-11-19T07:36:11.186Z,99.99
2017-11-19T07:37:11.077Z,99.99
2017-11-19T07:38:10.809Z,99.99
2017-11-19T07:39:10.800Z,99.99
2017-11-19T07:40:10.787Z,99.99
2017-11-19T07:41:11.035Z,99.99
2017-11-19T07:42:11.025Z,99.99
2017-11-19T07:43:11.011Z,99.99
2017-11-19T07:44:11.006Z,99.99
2017-11-19T07:45:10.739Z,99.99
2017-11-19T07:46:10.982Z,99.99
2017-11-19T07:47:10.984Z,99.99
2017-11-19T07:48:10.959Z,99.99
2017-11-19T07:49:10.956Z,99.99
2017-11-19T07:50:10.948Z,99.99
2017-11-19T07:51:10.932Z,99.99
2017-11-19T07:52:10.923Z,99.99
2017-11-19T07:53:10.916Z,99.99
2017-11-19T07:54:10.907Z,99.99
2017-11-19T07:55:10.891Z,99.99
2017-11-19T07:56:10.880Z,99.99
2017-11-19T07:57:10.868Z,99.99
2017-11-19T07:58:10.858Z,99.99
2017-11-19T07:59:10.592Z,99.99
2017-11-19T08:00:10.835Z,99.99
2017-11-19T08:01:10.567Z,99.99
2017-11-19T08:02:10.930Z,99.99
2017-11-19T08:03:10.804Z,99.99
2017-11-19T08:04:10.797Z,99.99
2017-11-19T08:05:10.529Z,99.99
2017-11-19T08:06:10.775Z,99.99
2017-11-19T08:07:10.764Z,99.99
2017-11-19T08:08:10.853Z,99.99
2017-11-19T08:09:10.743Z,99.99
2017-11-19T08:10:10.477Z,99.99
2017-11-19T08:11:10.465Z,99.99
2017-11-19T08:12:10.454Z,99.99
2017-11-19T08:13:10.444Z,99.99
2017-11-19T08:14:10.696Z,99.99
2017-11-19T08:15:10.688Z,99.99
2017-11-19T08:16:10.680Z,99.99
2017-11-19T08:17:10.663Z,99.99
2017-11-19T08:18:10.653Z,99.99
2017-11-19T08:19:10.381Z,99.99
2017-11-19T08:20:10.732Z,99.99
2017-11-19T08:21:10.620Z,99.99
2017-11-19T08:22:10.617Z,99.99
2017-11-19T08:23:10.600Z,99.99
2017-11-19T08:24:10.330Z,99.99
2017-11-19T08:25:10.580Z,99.99
2017-11-19T08:26:10.410Z,99.99
2017-11-19T08:27:10.559Z,99.99
2017-11-19T08:28:10.560Z,99.99
2017-11-19T08:29:10.544Z,99.99
2017-11-19T08:30:10.274Z,99.99
2017-11-19T08:31:10.514Z,99.99
2017-11-19T08:32:10.509Z,99.99
2017-11-19T08:33:10.236Z,99.99
2017-11-19T08:34:10.487Z,99.99
2017-11-19T08:35:10.480Z,99.99
2017-11-19T08:36:10.205Z,99.99
2017-11-19T08:37:10.449Z,99.99
2017-11-19T08:38:10.183Z,99.99
2017-11-19T08:39:10.443Z,99.99
2017-11-19T08:40:10.434Z,99.99
2017-11-19T08:41:10.447Z,99.99
2017-11-19T08:42:10.398Z,99.99
2017-11-19T08:43:10.395Z,99.99
2017-11-19T08:44:10.120Z,99.99
2017-11-19T08:45:10.366Z,99.99
2017-11-19T08:46:10.357Z,99.99
2017-11-19T08:47:10.090Z,99.99
2017-11-19T08:48:10.336Z,99.99
2017-11-19T08:49:10.329Z,99.99
2017-11-19T08:50:10.424Z,99.99
2017-11-19T08:51:10.305Z,99.99
2017-11-19T08:52:10.299Z,99.99
2017-11-19T08:53:10.028Z,99.99
2017-11-19T08:54:10.016Z,99.99
2017-11-19T08:55:10.265Z,99.99
2017-11-19T08:56:10.256Z,99.99
2017-11-19T08:57:10.251Z,99.99
2017-11-19T08:58:09.975Z,99.99
2017-11-19T08:59:10.219Z,99.99
2017-11-19T09:00:10.314Z,99.99
2017-11-19T09:01:10.202Z,99.99
2017-11-19T09:02:10.188Z,99.99
2017-11-19T09:03:10.184Z,99.99
2017-11-19T09:04:10.168Z,99.99
2017-11-19T09:05:10.162Z,99.99
2017-11-19T09:06:09.892Z,99.99
2017-11-19T09:07:10.139Z,99.99
2017-11-19T09:08:10.128Z,99.99
2017-11-19T09:09:09.857Z,99.99
2017-11-19T09:10:09.946Z,99.99
2017-11-19T09:11:10.097Z,99.99
2017-11-19T09:12:10.091Z,99.99
2017-11-19T09:13:10.076Z,99.99
2017-11-19T09:14:10.066Z,99.99
2017-11-19T09:15:09.795Z,99.99
2017-11-19T09:16:10.047Z,99.99
2017-11-19T09:17:09.776Z,99.99
2017-11-19T09:18:10.025Z,99.99
2017-11-19T09:19:10.013Z,99.99
2017-11-19T09:20:09.743Z,99.99
2017-11-19T09:21:09.990Z,99.99
2017-11-19T09:22:09.981Z,99.99
2017-11-19T09:23:09.992Z,99.99
2017-11-19T09:24:09.961Z,99.99
2017-11-19T09:25:09.952Z,99.99
2017-11-19T09:26:09.940Z,99.99
2017-11-19T09:27:09.926Z,99.99
2017-11-19T09:28:09.930Z,99.99
2017-11-19T09:29:09.923Z,99.99
2017-11-19T09:30:09.899Z,99.99
2017-11-19T09:31:09.887Z,99.99
2017-11-19T09:32:09.617Z,99.99
2017-11-19T09:33:09.967Z,99.99
2017-11-19T09:34:09.853Z,99.99
2017-11-19T09:35:09.588Z,99.99
2017-11-19T09:36:09.837Z,99.99
2017-11-19T09:37:09.827Z,99.99
2017-11-19T09:38:09.918Z,99.99
2017-11-19T09:39:09.810Z,99.99
2017-11-19T09:40:09.793Z,99.99
2017-11-19T09:41:09.791Z,99.99
2017-11-19T09:42:09.775Z,99.99
2017-11-19T09:43:09.863Z,99.99
2017-11-19T09:44:09.753Z,99.99
2017-11-19T09:45:09.484Z,99.99
2017-11-19T09:46:09.741Z,99.99
2017-11-19T09:47:09.720Z,99.99
2017-11-19T09:48:09.452Z,99.99
2017-11-19T09:49:09.700Z,99.99
2017-11-19T09:50:09.698Z,99.99
2017-11-19T09:51:09.681Z,99.99
2017-11-19T09:52:09.669Z,99.99
2017-11-19T09:53:09.660Z,99.99
2017-11-19T09:54:09.392Z,99.99
2017-11-19T09:55:09.639Z,99.99
2017-11-19T09:56:09.636Z,99.99
2017-11-19T09:57:09.616Z,99.99
2017-11-19T09:58:09.709Z,99.99
2017-11-19T09:59:09.598Z,99.99
2017-11-19T10:00:09.589Z,99.99
2017-11-19T10:01:09.577Z,99.99
2017-11-19T10:02:09.309Z,99.99
2017-11-19T10:03:09.557Z,99.99
2017-11-19T10:04:09.548Z,99.99
2017-11-19T10:05:09.539Z,99.99
2017-11-19T10:06:09.269Z,99.99
2017-11-19T10:07:09.259Z,99.99
2017-11-19T10:08:09.510Z,99.99
2017-11-19T10:09:09.505Z,99.99
2017-11-19T10:10:09.227Z,99.99
2017-11-19T10:11:09.472Z,99.99
2017-11-19T10:12:09.466Z,99.99
2017-11-19T10:13:09.467Z,99.99
2017-11-19T10:14:09.285Z,99.99
2017-11-19T10:15:09.175Z,99.99
2017-11-19T10:16:09.164Z,99.99
2017-11-19T10:17:09.415Z,99.99
2017-11-19T10:18:09.400Z,99.99
2017-11-19T10:19:09.392Z,99.99
2017-11-19T10:20:09.382Z,99.99
2017-11-19T10:21:09.371Z,99.99
2017-11-19T10:22:09.103Z,99.99
2017-11-19T10:23:09.388Z,99.99
2017-11-19T10:24:09.340Z,99.99
2017-11-19T10:25:09.336Z,99.99
2017-11-19T10:26:09.327Z,99.99
2017-11-19T10:27:09.050Z,99.99
2017-11-19T10:28:09.041Z,99.99
2017-11-19T10:29:09.030Z,99.99
2017-11-19T10:30:09.019Z,99.99
2017-11-19T10:31:09.008Z,99.99
2017-11-19T10:32:08.999Z,99.99
2017-11-19T10:33:09.350Z,99.99
2017-11-19T10:34:08.978Z,99.99
2017-11-19T10:35:09.229Z,99.99
2017-11-19T10:36:09.218Z,99.99
2017-11-19T10:37:09.210Z,99.99
2017-11-19T10:38:08.937Z,99.99
2017-11-19T10:39:09.193Z,99.99
2017-11-19T10:40:09.178Z,99.99
2017-11-19T10:41:09.168Z,99.99
2017-11-19T10:42:08.895Z,99.99
2017-11-19T10:43:09.145Z,99.99
2017-11-19T10:44:09.159Z,99.99
2017-11-19T10:45:08.968Z,99.99
2017-11-19T10:46:09.121Z,99.99
2017-11-19T10:47:09.105Z,99.99
2017-11-19T10:48:09.108Z,99.99
2017-11-19T10:49:08.836Z,99.99
2017-11-19T10:50:08.841Z,99.99
2017-11-19T10:51:09.059Z,99.99
2017-11-19T10:52:09.054Z,99.99
2017-11-19T10:53:09.039Z,99.99
2017-11-19T10:54:09.036Z,99.99
2017-11-19T10:55:09.023Z,99.99
2017-11-19T10:56:09.011Z,99.99
2017-11-19T10:57:08.740Z,99.99
2017-11-19T10:58:08.988Z,99.99
2017-11-19T10:59:08.981Z,99.99
2017-11-19T11:00:08.712Z,99.99
2017-11-19T11:01:08.972Z,99.99
2017-11-19T11:02:08.952Z,99.99
2017-11-19T11:03:08.939Z,99.99
2017-11-19T11:04:08.941Z,99.99
2017-11-19T11:05:08.917Z,99.99
2017-11-19T11:06:08.653Z,99.99
2017-11-19T11:07:08.932Z,99.99
2017-11-19T11:08:08.628Z,99.99
2017-11-19T11:09:08.979Z,99.99
2017-11-19T11:10:08.869Z,99.99
2017-11-19T11:11:08.599Z,99.99
2017-11-19T11:12:08.848Z,99.99
2017-11-19T11:13:08.839Z,99.99
2017-11-19T11:14:08.837Z,99.99
2017-11-19T11:15:08.819Z,99.99
2017-11-19T11:16:08.556Z,99.99
2017-11-19T11:17:08.795Z,99.99
2017-11-19T11:18:08.787Z,99.99
2017-11-19T11:19:08.518Z,99.99
2017-11-19T11:20:08.774Z,99.99
2017-11-19T11:21:08.755Z,99.99
2017-11-19T11:22:08.490Z,99.77
2017-11-19T11:23:08.743Z,99.49
2017-11-19T11:24:08.756Z,99.3
2017-11-19T11:25:08.817Z,99.39
2017-11-19T11:26:08.447Z,99.49
2017-11-19T11:27:08.436Z,99.77
2017-11-19T11:28:08.684Z,99.77
2017-11-19T11:29:08.773Z,99.77
2017-11-19T11:30:08.410Z,99.77
2017-11-19T11:31:08.658Z,99.77
2017-11-19T11:32:08.645Z,99.77
2017-11-19T11:33:08.374Z,99.77
2017-11-19T11:34:08.366Z,99.77
2017-11-19T11:35:08.354Z,99.39
2017-11-19T11:36:08.603Z,99.58
2017-11-19T11:37:08.333Z,99.2
2017-11-19T11:38:08.581Z,98.92
2017-11-19T11:39:08.577Z,99.49
2017-11-19T11:40:08.311Z,99.01
2017-11-19T11:41:08.292Z,98.92
2017-11-19T11:42:08.549Z,99.58
2017-11-19T11:43:08.273Z,99.2
2017-11-19T11:44:08.520Z,99.2
2017-11-19T11:45:08.517Z,98.63
2017-11-19T11:46:08.506Z,99.39
2017-11-19T11:47:08.495Z,99.39
2017-11-19T11:48:08.219Z,99.58
2017-11-19T11:49:08.484Z,99.39
2017-11-19T11:50:08.460Z,98.44
2017-11-19T11:51:08.453Z,98.35
2017-11-19T11:52:08.438Z,98.16
2017-11-19T11:53:08.432Z,98.54
2017-11-19T11:54:08.416Z,98.35
2017-11-19T11:55:08.149Z,98.16
2017-11-19T11:56:08.400Z,98.16
2017-11-19T11:57:08.400Z,98.07
2017-11-19T11:58:08.116Z,97.78
2017-11-19T11:59:08.368Z,97.21
2017-11-19T12:00:08.358Z,97.5
2017-11-19T12:01:08.356Z,96.92
2017-11-19T12:02:08.077Z,96.83
2017-11-19T12:03:08.333Z,96.17
2017-11-19T12:04:08.058Z,96.92
2017-11-19T12:05:08.314Z,96.17
2017-11-19T12:06:08.295Z,96.55
2017-11-19T12:07:08.283Z,95.98
2017-11-19T12:08:08.015Z,96.08
2017-11-19T12:09:08.263Z,95.79
2017-11-19T12:10:07.996Z,95.69
2017-11-19T12:11:08.246Z,94.93
2017-11-19T12:12:08.236Z,94.93
2017-11-19T12:13:08.223Z,94.46
2017-11-19T12:14:08.215Z,93.51
2017-11-19T12:15:07.949Z,92.94
2017-11-19T12:16:08.196Z,92.57
2017-11-19T12:17:08.185Z,92.94
2017-11-19T12:18:08.172Z,93.04
2017-11-19T12:19:08.171Z,92.28
2017-11-19T12:20:08.157Z,91.71
2017-11-19T12:21:08.143Z,90.48
2017-11-19T12:22:08.233Z,90.57
2017-11-19T12:23:07.871Z,90.19
2017-11-19T12:24:08.127Z,90.14
2017-11-19T12:25:08.101Z,89.86
2017-11-19T12:26:08.096Z,89.1
2017-11-19T12:27:08.084Z,88.15
2017-11-19T12:28:08.101Z,86.91
2017-11-19T12:29:08.064Z,85.78
2017-11-19T12:30:08.058Z,85.87
2017-11-19T12:31:08.042Z,85.11
2017-11-19T12:32:08.033Z,84.36
2017-11-19T12:33:08.027Z,84.55
2017-11-19T12:34:07.753Z,84.26
2017-11-19T12:35:08.003Z,83.97
2017-11-19T12:36:07.993Z,83.31
2017-11-19T12:37:07.989Z,82.65
2017-11-19T12:38:07.734Z,81.6
2017-11-19T12:39:07.967Z,81.41
2017-11-19T12:40:07.953Z,80.84
2017-11-19T12:41:07.683Z,80.88
2017-11-19T12:42:07.932Z,80.6
2017-11-19T12:43:07.934Z,80.13
2017-11-19T12:44:07.913Z,80.51
2017-11-19T12:45:08.004Z,80.13
2017-11-19T12:46:07.890Z,79.46
2017-11-19T12:47:07.881Z,79.27
2017-11-19T12:48:08.007Z,79.08
2017-11-19T12:49:07.603Z,79.27
2017-11-19T12:50:07.851Z,79.27
2017-11-19T12:51:07.848Z,79.04
2017-11-19T12:52:07.839Z,79.52
2017-11-19T12:53:07.819Z,79.33
2017-11-19T12:54:07.555Z,79.9